sensor_id;sensor_type;location;lat;lon;timestamp;temperature;humidity
36586;DHT22;22591;48.314;11.562;2023-03-24T00:01:18;12.50;97.20
36586;DHT22;22591;48.314;11.562;2023-03-24T00:03:44;12.30;97.60
36586;DHT22;22591;48.314;11.562;2023-03-24T00:06:10;12.20;97.90
36586;DHT22;22591;48.314;11.562;2023-03-24T00:08:38;12.20;98.00
36586;DHT22;22591;48.314;11.562;2023-03-24T00:11:08;12.10;98.10
36586;DHT22;22591;48.314;11.562;2023-03-24T00:13:36;12.00;98.30
36586;DHT22;22591;48.314;11.562;2023-03-24T00:16:20;12.00;98.40
36586;DHT22;22591;48.314;11.562;2023-03-24T00:18:46;12.00;98.40
36586;DHT22;22591;48.314;11.562;2023-03-24T00:21:18;12.00;98.50
36586;DHT22;22591;48.314;11.562;2023-03-24T00:23:46;12.00;98.50
36586;DHT22;22591;48.314;11.562;2023-03-24T00:26:14;11.90;98.60
36586;DHT22;22591;48.314;11.562;2023-03-24T00:28:44;11.90;98.70
36586;DHT22;22591;48.314;11.562;2023-03-24T00:31:11;11.90;98.60
36586;DHT22;22591;48.314;11.562;2023-03-24T00:33:39;11.90;98.50
36586;DHT22;22591;48.314;11.562;2023-03-24T00:36:07;11.90;98.30
36586;DHT22;22591;48.314;11.562;2023-03-24T00:38:38;11.90;98.10
36586;DHT22;22591;48.314;11.562;2023-03-24T00:41:08;12.00;98.10
36586;DHT22;22591;48.314;11.562;2023-03-24T00:43:35;12.00;97.70
36586;DHT22;22591;48.314;11.562;2023-03-24T00:46:04;12.00;97.50
36586;DHT22;22591;48.314;11.562;2023-03-24T00:48:31;12.00;97.50
36586;DHT22;22591;48.314;11.562;2023-03-24T00:50:57;12.00;97.50
36586;DHT22;22591;48.314;11.562;2023-03-24T00:53:25;12.00;97.50
36586;DHT22;22591;48.314;11.562;2023-03-24T00:55:54;11.90;97.50
36586;DHT22;22591;48.314;11.562;2023-03-24T00:58:20;12.00;97.50
36586;DHT22;22591;48.314;11.562;2023-03-24T01:00:49;12.00;97.30
36586;DHT22;22591;48.314;11.562;2023-03-24T01:03:15;12.10;97.20
36586;DHT22;22591;48.314;11.562;2023-03-24T01:05:42;12.10;97.20
36586;DHT22;22591;48.314;11.562;2023-03-24T01:08:13;12.20;97.10
36586;DHT22;22591;48.314;11.562;2023-03-24T01:10:39;12.20;97.10
36586;DHT22;22591;48.314;11.562;2023-03-24T01:13:22;12.20;97.10
36586;DHT22;22591;48.314;11.562;2023-03-24T01:15:48;12.10;97.20
36586;DHT22;22591;48.314;11.562;2023-03-24T01:18:15;12.10;97.40
36586;DHT22;22591;48.314;11.562;2023-03-24T01:20:42;12.00;97.50
36586;DHT22;22591;48.314;11.562;2023-03-24T01:23:12;12.00;97.40
36586;DHT22;22591;48.314;11.562;2023-03-24T01:25:42;12.00;97.30
36586;DHT22;22591;48.314;11.562;2023-03-24T01:28:11;12.00;97.10
36586;DHT22;22591;48.314;11.562;2023-03-24T01:30:37;12.10;97.10
36586;DHT22;22591;48.314;11.562;2023-03-24T01:33:03;12.20;97.10
36586;DHT22;22591;48.314;11.562;2023-03-24T01:35:28;12.20;96.90
36586;DHT22;22591;48.314;11.562;2023-03-24T01:37:54;12.20;96.90
36586;DHT22;22591;48.314;11.562;2023-03-24T01:40:24;12.20;96.70
36586;DHT22;22591;48.314;11.562;2023-03-24T01:42:50;12.40;96.50
36586;DHT22;22591;48.314;11.562;2023-03-24T01:48:10;12.50;96.40
36586;DHT22;22591;48.314;11.562;2023-03-24T01:50:37;12.50;96.20
36586;DHT22;22591;48.314;11.562;2023-03-24T01:53:05;12.50;96.10
36586;DHT22;22591;48.314;11.562;2023-03-24T01:55:31;12.50;96.00
36586;DHT22;22591;48.314;11.562;2023-03-24T01:57:59;12.60;95.90
36586;DHT22;22591;48.314;11.562;2023-03-24T02:00:26;12.60;95.60
36586;DHT22;22591;48.314;11.562;2023-03-24T02:02:57;12.70;95.50
36586;DHT22;22591;48.314;11.562;2023-03-24T02:05:28;12.70;95.60
36586;DHT22;22591;48.314;11.562;2023-03-24T02:10:36;12.70;96.40
36586;DHT22;22591;48.314;11.562;2023-03-24T02:13:03;12.80;96.60
36586;DHT22;22591;48.314;11.562;2023-03-24T02:15:31;12.70;97.10
36586;DHT22;22591;48.314;11.562;2023-03-24T02:18:29;12.60;97.70
36586;DHT22;22591;48.314;11.562;2023-03-24T02:34:58;12.20;99.60
36586;DHT22;22591;48.314;11.562;2023-03-24T02:40:29;12.20;99.80
36586;DHT22;22591;48.314;11.562;2023-03-24T02:43:04;12.20;99.40
36586;DHT22;22591;48.314;11.562;2023-03-24T02:45:36;12.10;99.50
36586;DHT22;22591;48.314;11.562;2023-03-24T02:53:37;12.20;99.70
36586;DHT22;22591;48.314;11.562;2023-03-24T02:59:40;12.20;99.10
36586;DHT22;22591;48.314;11.562;2023-03-24T03:02:19;12.20;99.70
36586;DHT22;22591;48.314;11.562;2023-03-24T03:04:49;12.10;99.90
36586;DHT22;22591;48.314;11.562;2023-03-24T03:07:20;12.10;99.80
36586;DHT22;22591;48.314;11.562;2023-03-24T03:10:01;12.20;99.60
36586;DHT22;22591;48.314;11.562;2023-03-24T03:12:30;12.20;99.90
36586;DHT22;22591;48.314;11.562;2023-03-24T03:15:03;12.10;99.90
36586;DHT22;22591;48.314;11.562;2023-03-24T03:17:36;12.00;99.90
36586;DHT22;22591;48.314;11.562;2023-03-24T03:20:18;11.90;99.90
36586;DHT22;22591;48.314;11.562;2023-03-24T03:22:52;11.90;99.90
36586;DHT22;22591;48.314;11.562;2023-03-24T03:25:26;11.90;99.90
36586;DHT22;22591;48.314;11.562;2023-03-24T03:27:57;12.00;99.90
36586;DHT22;22591;48.314;11.562;2023-03-24T03:30:34;12.00;99.90
36586;DHT22;22591;48.314;11.562;2023-03-24T03:33:15;12.10;99.90
36586;DHT22;22591;48.314;11.562;2023-03-24T03:36:06;11.90;99.90
36586;DHT22;22591;48.314;11.562;2023-03-24T03:38:44;11.90;99.90
36586;DHT22;22591;48.314;11.562;2023-03-24T03:41:12;11.90;99.90
36586;DHT22;22591;48.314;11.562;2023-03-24T03:43:40;11.80;99.90
36586;DHT22;22591;48.314;11.562;2023-03-24T03:46:06;11.90;99.90
36586;DHT22;22591;48.314;11.562;2023-03-24T03:48:33;11.90;99.90
36586;DHT22;22591;48.314;11.562;2023-03-24T03:50:59;11.90;99.90
36586;DHT22;22591;48.314;11.562;2023-03-24T03:53:33;11.90;99.90
36586;DHT22;22591;48.314;11.562;2023-03-24T03:56:01;11.90;99.90
36586;DHT22;22591;48.314;11.562;2023-03-24T03:58:28;11.70;99.90
36586;DHT22;22591;48.314;11.562;2023-03-24T04:00:54;11.70;99.90
36586;DHT22;22591;48.314;11.562;2023-03-24T04:08:48;11.40;99.90
36586;DHT22;22591;48.314;11.562;2023-03-24T04:22:42;11.50;99.90
36586;DHT22;22591;48.314;11.562;2023-03-24T04:30:45;11.10;99.90
36586;DHT22;22591;48.314;11.562;2023-03-24T04:36:00;11.20;99.90
36586;DHT22;22591;48.314;11.562;2023-03-24T04:38:31;11.20;99.90
36586;DHT22;22591;48.314;11.562;2023-03-24T04:41:01;11.30;99.90
36586;DHT22;22591;48.314;11.562;2023-03-24T04:43:30;11.50;99.90
36586;DHT22;22591;48.314;11.562;2023-03-24T04:46:01;11.50;99.90
36586;DHT22;22591;48.314;11.562;2023-03-24T04:48:28;11.50;99.90
36586;DHT22;22591;48.314;11.562;2023-03-24T04:50:56;11.50;99.90
36586;DHT22;22591;48.314;11.562;2023-03-24T04:53:22;11.50;99.90
36586;DHT22;22591;48.314;11.562;2023-03-24T04:58:19;11.60;99.90
36586;DHT22;22591;48.314;11.562;2023-03-24T05:00:45;11.60;99.90
36586;DHT22;22591;48.314;11.562;2023-03-24T05:03:12;11.70;99.90
36586;DHT22;22591;48.314;11.562;2023-03-24T05:05:48;11.70;99.90
36586;DHT22;22591;48.314;11.562;2023-03-24T05:08:15;11.70;99.90
36586;DHT22;22591;48.314;11.562;2023-03-24T05:10:41;11.70;99.90
36586;DHT22;22591;48.314;11.562;2023-03-24T05:13:09;11.70;99.90
36586;DHT22;22591;48.314;11.562;2023-03-24T05:15:35;11.80;99.90
36586;DHT22;22591;48.314;11.562;2023-03-24T05:18:01;11.80;99.90
36586;DHT22;22591;48.314;11.562;2023-03-24T05:20:27;11.80;99.90
36586;DHT22;22591;48.314;11.562;2023-03-24T05:22:54;11.80;99.90
36586;DHT22;22591;48.314;11.562;2023-03-24T05:25:19;11.80;99.90
36586;DHT22;22591;48.314;11.562;2023-03-24T05:27:45;11.80;99.90
36586;DHT22;22591;48.314;11.562;2023-03-24T05:30:11;11.70;99.90
36586;DHT22;22591;48.314;11.562;2023-03-24T05:32:37;11.70;99.90
36586;DHT22;22591;48.314;11.562;2023-03-24T05:35:03;11.70;99.90
36586;DHT22;22591;48.314;11.562;2023-03-24T05:37:29;11.80;99.90
36586;DHT22;22591;48.314;11.562;2023-03-24T05:39:55;11.80;99.90
36586;DHT22;22591;48.314;11.562;2023-03-24T05:42:21;11.90;99.90
36586;DHT22;22591;48.314;11.562;2023-03-24T05:44:46;12.00;99.90
36586;DHT22;22591;48.314;11.562;2023-03-24T05:47:13;12.00;99.90
36586;DHT22;22591;48.314;11.562;2023-03-24T05:49:44;12.00;99.90
36586;DHT22;22591;48.314;11.562;2023-03-24T05:52:11;12.00;99.90
36586;DHT22;22591;48.314;11.562;2023-03-24T05:54:37;12.00;99.90
36586;DHT22;22591;48.314;11.562;2023-03-24T05:57:04;12.00;99.90
36586;DHT22;22591;48.314;11.562;2023-03-24T05:59:32;12.00;99.90
36586;DHT22;22591;48.314;11.562;2023-03-24T06:01:58;11.90;99.90
36586;DHT22;22591;48.314;11.562;2023-03-24T06:04:24;11.90;99.90
36586;DHT22;22591;48.314;11.562;2023-03-24T06:06:54;11.90;99.90
36586;DHT22;22591;48.314;11.562;2023-03-24T06:09:20;11.90;99.90
36586;DHT22;22591;48.314;11.562;2023-03-24T06:11:46;11.90;99.90
36586;DHT22;22591;48.314;11.562;2023-03-24T06:14:12;11.80;99.90
36586;DHT22;22591;48.314;11.562;2023-03-24T06:16:37;11.70;99.90
36586;DHT22;22591;48.314;11.562;2023-03-24T06:19:03;11.60;99.90
36586;DHT22;22591;48.314;11.562;2023-03-24T06:21:32;11.50;99.90
36586;DHT22;22591;48.314;11.562;2023-03-24T06:23:57;11.60;99.90
36586;DHT22;22591;48.314;11.562;2023-03-24T06:26:24;11.60;99.90
36586;DHT22;22591;48.314;11.562;2023-03-24T06:28:50;11.50;99.90
36586;DHT22;22591;48.314;11.562;2023-03-24T06:31:19;11.50;99.90
36586;DHT22;22591;48.314;11.562;2023-03-24T06:33:46;11.60;99.90
36586;DHT22;22591;48.314;11.562;2023-03-24T06:36:13;11.60;99.90
36586;DHT22;22591;48.314;11.562;2023-03-24T06:38:39;11.70;99.90
36586;DHT22;22591;48.314;11.562;2023-03-24T06:41:06;11.80;99.90
36586;DHT22;22591;48.314;11.562;2023-03-24T06:43:32;11.90;99.90
36586;DHT22;22591;48.314;11.562;2023-03-24T06:45:58;12.00;99.90
36586;DHT22;22591;48.314;11.562;2023-03-24T06:48:25;12.10;99.90
36586;DHT22;22591;48.314;11.562;2023-03-24T06:50:52;12.20;99.90
36586;DHT22;22591;48.314;11.562;2023-03-24T06:53:18;12.20;99.90
36586;DHT22;22591;48.314;11.562;2023-03-24T06:55:46;12.20;99.90
36586;DHT22;22591;48.314;11.562;2023-03-24T06:58:12;12.20;99.90
36586;DHT22;22591;48.314;11.562;2023-03-24T07:00:39;12.30;99.90
36586;DHT22;22591;48.314;11.562;2023-03-24T07:03:05;12.40;99.90
36586;DHT22;22591;48.314;11.562;2023-03-24T07:05:36;12.40;99.90
36586;DHT22;22591;48.314;11.562;2023-03-24T07:08:02;12.50;99.90
36586;DHT22;22591;48.314;11.562;2023-03-24T07:10:28;12.50;99.90
36586;DHT22;22591;48.314;11.562;2023-03-24T07:12:53;12.60;99.90
36586;DHT22;22591;48.314;11.562;2023-03-24T07:15:19;12.60;99.90
36586;DHT22;22591;48.314;11.562;2023-03-24T07:17:45;12.60;99.90
36586;DHT22;22591;48.314;11.562;2023-03-24T07:20:11;12.80;99.90
36586;DHT22;22591;48.314;11.562;2023-03-24T07:22:36;12.90;99.90
36586;DHT22;22591;48.314;11.562;2023-03-24T07:25:03;13.00;99.90
36586;DHT22;22591;48.314;11.562;2023-03-24T07:27:30;12.90;99.90
36586;DHT22;22591;48.314;11.562;2023-03-24T07:29:57;12.90;99.90
36586;DHT22;22591;48.314;11.562;2023-03-24T07:32:23;12.80;99.90
36586;DHT22;22591;48.314;11.562;2023-03-24T07:34:49;12.70;99.90
36586;DHT22;22591;48.314;11.562;2023-03-24T07:37:15;12.70;99.90
36586;DHT22;22591;48.314;11.562;2023-03-24T07:39:40;12.70;99.90
36586;DHT22;22591;48.314;11.562;2023-03-24T07:42:06;12.60;99.90
36586;DHT22;22591;48.314;11.562;2023-03-24T07:44:32;12.80;99.90
36586;DHT22;22591;48.314;11.562;2023-03-24T07:46:57;12.80;99.90
36586;DHT22;22591;48.314;11.562;2023-03-24T07:49:23;12.80;99.90
36586;DHT22;22591;48.314;11.562;2023-03-24T07:51:48;12.80;99.90
36586;DHT22;22591;48.314;11.562;2023-03-24T07:54:14;12.80;99.90
36586;DHT22;22591;48.314;11.562;2023-03-24T07:56:39;12.90;99.90
36586;DHT22;22591;48.314;11.562;2023-03-24T07:59:06;12.90;99.90
36586;DHT22;22591;48.314;11.562;2023-03-24T08:01:34;12.90;99.90
36586;DHT22;22591;48.314;11.562;2023-03-24T08:04:01;12.90;99.90
36586;DHT22;22591;48.314;11.562;2023-03-24T08:06:27;13.00;99.90
36586;DHT22;22591;48.314;11.562;2023-03-24T08:08:54;13.00;99.90
36586;DHT22;22591;48.314;11.562;2023-03-24T08:11:19;12.90;99.90
36586;DHT22;22591;48.314;11.562;2023-03-24T08:13:45;12.90;99.90
36586;DHT22;22591;48.314;11.562;2023-03-24T08:16:11;12.90;99.90
36586;DHT22;22591;48.314;11.562;2023-03-24T08:18:37;12.80;99.90
36586;DHT22;22591;48.314;11.562;2023-03-24T08:21:02;12.60;99.90
36586;DHT22;22591;48.314;11.562;2023-03-24T08:23:28;12.70;99.90
36586;DHT22;22591;48.314;11.562;2023-03-24T08:25:54;12.60;99.90
36586;DHT22;22591;48.314;11.562;2023-03-24T08:28:19;12.60;99.90
36586;DHT22;22591;48.314;11.562;2023-03-24T08:30:46;12.70;99.90
36586;DHT22;22591;48.314;11.562;2023-03-24T08:33:13;12.70;99.90
36586;DHT22;22591;48.314;11.562;2023-03-24T08:35:39;12.70;99.90
36586;DHT22;22591;48.314;11.562;2023-03-24T08:38:07;12.70;99.90
36586;DHT22;22591;48.314;11.562;2023-03-24T08:40:33;12.70;99.90
36586;DHT22;22591;48.314;11.562;2023-03-24T08:43:02;12.60;99.90
36586;DHT22;22591;48.314;11.562;2023-03-24T08:45:30;12.60;99.90
36586;DHT22;22591;48.314;11.562;2023-03-24T08:48:00;12.60;99.90
36586;DHT22;22591;48.314;11.562;2023-03-24T08:50:29;12.60;99.90
36586;DHT22;22591;48.314;11.562;2023-03-24T08:52:56;12.70;99.90
36586;DHT22;22591;48.314;11.562;2023-03-24T08:55:22;12.80;99.90
36586;DHT22;22591;48.314;11.562;2023-03-24T08:57:48;12.90;99.90
36586;DHT22;22591;48.314;11.562;2023-03-24T09:00:15;12.90;99.90
36586;DHT22;22591;48.314;11.562;2023-03-24T09:02:42;12.90;99.90
36586;DHT22;22591;48.314;11.562;2023-03-24T09:05:08;13.00;99.90
36586;DHT22;22591;48.314;11.562;2023-03-24T09:07:34;13.20;99.90
36586;DHT22;22591;48.314;11.562;2023-03-24T09:10:00;13.20;99.90
36586;DHT22;22591;48.314;11.562;2023-03-24T09:12:26;13.30;99.90
36586;DHT22;22591;48.314;11.562;2023-03-24T09:14:51;13.40;99.90
36586;DHT22;22591;48.314;11.562;2023-03-24T09:17:17;13.50;99.90
36586;DHT22;22591;48.314;11.562;2023-03-24T09:19:43;13.60;99.90
36586;DHT22;22591;48.314;11.562;2023-03-24T09:22:10;13.60;99.90
36586;DHT22;22591;48.314;11.562;2023-03-24T09:24:35;13.70;99.90
36586;DHT22;22591;48.314;11.562;2023-03-24T09:27:01;13.70;99.90
36586;DHT22;22591;48.314;11.562;2023-03-24T09:29:27;13.60;99.90
36586;DHT22;22591;48.314;11.562;2023-03-24T09:31:54;13.50;99.90
36586;DHT22;22591;48.314;11.562;2023-03-24T09:34:21;13.50;99.90
36586;DHT22;22591;48.314;11.562;2023-03-24T09:36:47;13.50;99.90
36586;DHT22;22591;48.314;11.562;2023-03-24T09:39:12;13.40;99.90
36586;DHT22;22591;48.314;11.562;2023-03-24T09:41:38;13.40;99.90
36586;DHT22;22591;48.314;11.562;2023-03-24T09:44:18;13.30;99.90
36586;DHT22;22591;48.314;11.562;2023-03-24T09:46:49;13.30;99.90
36586;DHT22;22591;48.314;11.562;2023-03-24T09:49:23;13.30;99.90
36586;DHT22;22591;48.314;11.562;2023-03-24T09:51:55;13.30;99.90
36586;DHT22;22591;48.314;11.562;2023-03-24T09:57:21;13.30;99.90
36586;DHT22;22591;48.314;11.562;2023-03-24T09:59:48;13.20;99.90
36586;DHT22;22591;48.314;11.562;2023-03-24T10:02:16;13.20;99.90
36586;DHT22;22591;48.314;11.562;2023-03-24T10:04:42;13.30;99.90
36586;DHT22;22591;48.314;11.562;2023-03-24T10:07:22;13.40;99.90
36586;DHT22;22591;48.314;11.562;2023-03-24T10:09:54;13.40;99.90
36586;DHT22;22591;48.314;11.562;2023-03-24T10:12:38;13.40;99.90
36586;DHT22;22591;48.314;11.562;2023-03-24T10:15:25;13.40;99.90
36586;DHT22;22591;48.314;11.562;2023-03-24T10:21:04;13.60;99.90
36586;DHT22;22591;48.314;11.562;2023-03-24T10:23:45;13.50;99.90
36586;DHT22;22591;48.314;11.562;2023-03-24T10:26:47;13.40;99.90
36586;DHT22;22591;48.314;11.562;2023-03-24T10:31:51;13.30;99.90
36586;DHT22;22591;48.314;11.562;2023-03-24T10:34:18;13.40;99.90
36586;DHT22;22591;48.314;11.562;2023-03-24T10:36:43;13.30;99.90
36586;DHT22;22591;48.314;11.562;2023-03-24T10:39:14;13.30;99.90
36586;DHT22;22591;48.314;11.562;2023-03-24T10:41:40;13.50;99.90
36586;DHT22;22591;48.314;11.562;2023-03-24T10:44:07;13.70;99.90
36586;DHT22;22591;48.314;11.562;2023-03-24T10:46:33;13.90;99.90
36586;DHT22;22591;48.314;11.562;2023-03-24T10:49:17;14.00;99.90
36586;DHT22;22591;48.314;11.562;2023-03-24T10:51:49;14.10;99.90
36586;DHT22;22591;48.314;11.562;2023-03-24T10:54:17;14.00;99.90
36586;DHT22;22591;48.314;11.562;2023-03-24T10:56:49;13.90;99.90
36586;DHT22;22591;48.314;11.562;2023-03-24T10:59:27;13.80;99.90
36586;DHT22;22591;48.314;11.562;2023-03-24T11:02:20;13.70;99.90
36586;DHT22;22591;48.314;11.562;2023-03-24T11:07:37;13.80;99.90
36586;DHT22;22591;48.314;11.562;2023-03-24T11:10:05;14.00;99.90
36586;DHT22;22591;48.314;11.562;2023-03-24T11:12:34;14.10;99.90
36586;DHT22;22591;48.314;11.562;2023-03-24T11:15:25;14.40;99.90
36586;DHT22;22591;48.314;11.562;2023-03-24T11:18:07;14.50;99.90
36586;DHT22;22591;48.314;11.562;2023-03-24T11:20:56;14.50;99.90
36586;DHT22;22591;48.314;11.562;2023-03-24T11:23:26;14.40;99.90
36586;DHT22;22591;48.314;11.562;2023-03-24T11:28:28;14.30;99.90
36586;DHT22;22591;48.314;11.562;2023-03-24T11:30:54;14.20;99.90
36586;DHT22;22591;48.314;11.562;2023-03-24T11:33:31;14.20;99.90
36586;DHT22;22591;48.314;11.562;2023-03-24T11:36:00;14.40;99.90
36586;DHT22;22591;48.314;11.562;2023-03-24T11:38:29;14.70;99.90
36586;DHT22;22591;48.314;11.562;2023-03-24T11:40:57;15.00;99.90
36586;DHT22;22591;48.314;11.562;2023-03-24T11:43:24;15.50;99.90
36586;DHT22;22591;48.314;11.562;2023-03-24T11:46:04;15.90;99.90
36586;DHT22;22591;48.314;11.562;2023-03-24T11:51:15;16.20;99.90
36586;DHT22;22591;48.314;11.562;2023-03-24T11:53:48;16.50;99.90
36586;DHT22;22591;48.314;11.562;2023-03-24T11:59:13;17.00;99.90
36586;DHT22;22591;48.314;11.562;2023-03-24T12:02:15;17.10;99.90
36586;DHT22;22591;48.314;11.562;2023-03-24T12:13:35;17.60;99.60
36586;DHT22;22591;48.314;11.562;2023-03-24T12:19:42;17.70;98.50
36586;DHT22;22591;48.314;11.562;2023-03-24T12:24:45;17.90;97.40
36586;DHT22;22591;48.314;11.562;2023-03-24T12:27:16;18.00;98.10
36586;DHT22;22591;48.314;11.562;2023-03-24T12:30:06;18.20;97.40
36586;DHT22;22591;48.314;11.562;2023-03-24T12:33:09;18.50;96.80
36586;DHT22;22591;48.314;11.562;2023-03-24T12:36:07;18.30;96.60
36586;DHT22;22591;48.314;11.562;2023-03-24T12:41:42;18.10;97.10
36586;DHT22;22591;48.314;11.562;2023-03-24T12:49:19;17.70;97.30
36586;DHT22;22591;48.314;11.562;2023-03-24T12:52:09;17.60;97.40
36586;DHT22;22591;48.314;11.562;2023-03-24T12:54:59;17.30;96.60
36586;DHT22;22591;48.314;11.562;2023-03-24T12:57:37;17.00;97.70
36586;DHT22;22591;48.314;11.562;2023-03-24T13:00:11;16.80;98.60
36586;DHT22;22591;48.314;11.562;2023-03-24T13:02:47;16.60;97.30
36586;DHT22;22591;48.314;11.562;2023-03-24T13:05:19;16.40;98.10
36586;DHT22;22591;48.314;11.562;2023-03-24T13:07:49;16.30;98.40
36586;DHT22;22591;48.314;11.562;2023-03-24T13:10:27;16.40;97.80
36586;DHT22;22591;48.314;11.562;2023-03-24T13:13:16;16.60;97.50
36586;DHT22;22591;48.314;11.562;2023-03-24T13:15:48;16.80;96.90
36586;DHT22;22591;48.314;11.562;2023-03-24T13:18:35;17.00;96.70
36586;DHT22;22591;48.314;11.562;2023-03-24T13:32:01;16.40;96.90
36586;DHT22;22591;48.314;11.562;2023-03-24T13:34:35;16.30;97.50
36586;DHT22;22591;48.314;11.562;2023-03-24T13:37:15;16.10;98.20
36586;DHT22;22591;48.314;11.562;2023-03-24T13:39:43;15.60;98.40
36586;DHT22;22591;48.314;11.562;2023-03-24T13:44:52;15.20;99.10
36586;DHT22;22591;48.314;11.562;2023-03-24T13:47:18;15.30;99.50
36586;DHT22;22591;48.314;11.562;2023-03-24T13:49:59;15.40;99.60
36586;DHT22;22591;48.314;11.562;2023-03-24T13:52:35;15.70;99.40
36586;DHT22;22591;48.314;11.562;2023-03-24T13:55:12;15.80;98.60
36586;DHT22;22591;48.314;11.562;2023-03-24T13:57:52;15.70;98.70
36586;DHT22;22591;48.314;11.562;2023-03-24T14:00:22;15.60;98.80
36586;DHT22;22591;48.314;11.562;2023-03-24T14:02:51;15.60;99.10
36586;DHT22;22591;48.314;11.562;2023-03-24T14:17:24;16.00;98.50
36586;DHT22;22591;48.314;11.562;2023-03-24T14:19:43;16.00;98.10
36586;DHT22;22591;48.314;11.562;2023-03-24T14:22:29;16.10;97.60
36586;DHT22;22591;48.314;11.562;2023-03-24T14:27:40;16.40;96.80
36586;DHT22;22591;48.314;11.562;2023-03-24T14:32:50;16.30;96.10
36586;DHT22;22591;48.314;11.562;2023-03-24T14:40:47;15.70;96.70
36586;DHT22;22591;48.314;11.562;2023-03-24T14:44:06;15.60;96.70
36586;DHT22;22591;48.314;11.562;2023-03-24T14:48:57;15.50;98.00
36586;DHT22;22591;48.314;11.562;2023-03-24T14:51:56;15.60;97.70
36586;DHT22;22591;48.314;11.562;2023-03-24T14:54:34;15.70;97.60
36586;DHT22;22591;48.314;11.562;2023-03-24T14:57:02;15.80;97.00
36586;DHT22;22591;48.314;11.562;2023-03-24T14:59:40;15.80;97.10
36586;DHT22;22591;48.314;11.562;2023-03-24T15:02:34;15.80;97.00
36586;DHT22;22591;48.314;11.562;2023-03-24T15:05:18;15.80;96.90
36586;DHT22;22591;48.314;11.562;2023-03-24T15:07:57;15.60;96.80
36586;DHT22;22591;48.314;11.562;2023-03-24T15:10:24;15.60;97.10
36586;DHT22;22591;48.314;11.562;2023-03-24T15:12:50;15.60;97.00
36586;DHT22;22591;48.314;11.562;2023-03-24T15:15:18;15.50;97.00
36586;DHT22;22591;48.314;11.562;2023-03-24T15:17:45;15.50;96.80
36586;DHT22;22591;48.314;11.562;2023-03-24T15:20:26;15.50;96.90
36586;DHT22;22591;48.314;11.562;2023-03-24T15:22:52;15.50;97.10
36586;DHT22;22591;48.314;11.562;2023-03-24T15:25:27;15.40;97.00
36586;DHT22;22591;48.314;11.562;2023-03-24T15:27:54;15.20;97.40
36586;DHT22;22591;48.314;11.562;2023-03-24T15:30:20;15.00;97.80
36586;DHT22;22591;48.314;11.562;2023-03-24T15:32:46;14.80;98.20
36586;DHT22;22591;48.314;11.562;2023-03-24T15:35:21;14.70;98.70
36586;DHT22;22591;48.314;11.562;2023-03-24T15:37:54;14.60;98.80
36586;DHT22;22591;48.314;11.562;2023-03-24T15:43:39;14.50;99.00
36586;DHT22;22591;48.314;11.562;2023-03-24T15:45:49;14.50;99.20
36586;DHT22;22591;48.314;11.562;2023-03-24T15:48:20;14.50;99.30
36586;DHT22;22591;48.314;11.562;2023-03-24T15:51:13;14.40;99.30
36586;DHT22;22591;48.314;11.562;2023-03-24T15:53:46;14.40;99.30
36586;DHT22;22591;48.314;11.562;2023-03-24T15:56:27;14.20;99.70
36586;DHT22;22591;48.314;11.562;2023-03-24T15:59:06;14.20;99.90
36586;DHT22;22591;48.314;11.562;2023-03-24T16:01:33;14.00;99.90
36586;DHT22;22591;48.314;11.562;2023-03-24T16:04:13;13.90;99.90
36586;DHT22;22591;48.314;11.562;2023-03-24T16:06:42;13.80;99.90
36586;DHT22;22591;48.314;11.562;2023-03-24T16:09:14;13.70;99.90
36586;DHT22;22591;48.314;11.562;2023-03-24T16:11:40;13.50;99.90
36586;DHT22;22591;48.314;11.562;2023-03-24T16:14:22;13.30;99.90
36586;DHT22;22591;48.314;11.562;2023-03-24T16:16:52;13.20;99.90
36586;DHT22;22591;48.314;11.562;2023-03-24T16:19:18;13.10;99.90
36586;DHT22;22591;48.314;11.562;2023-03-24T16:21:44;12.80;99.90
36586;DHT22;22591;48.314;11.562;2023-03-24T16:24:09;12.60;99.90
36586;DHT22;22591;48.314;11.562;2023-03-24T16:26:35;12.50;99.90
36586;DHT22;22591;48.314;11.562;2023-03-24T16:29:21;12.30;99.90
36586;DHT22;22591;48.314;11.562;2023-03-24T16:31:50;12.20;99.90
36586;DHT22;22591;48.314;11.562;2023-03-24T16:34:16;12.10;99.90
36586;DHT22;22591;48.314;11.562;2023-03-24T16:36:46;11.90;99.90
36586;DHT22;22591;48.314;11.562;2023-03-24T16:39:15;11.90;99.90
36586;DHT22;22591;48.314;11.562;2023-03-24T16:41:41;11.80;99.90
36586;DHT22;22591;48.314;11.562;2023-03-24T16:44:08;11.70;99.90
36586;DHT22;22591;48.314;11.562;2023-03-24T16:46:34;11.60;99.90
36586;DHT22;22591;48.314;11.562;2023-03-24T16:49:03;11.60;99.90
36586;DHT22;22591;48.314;11.562;2023-03-24T16:51:29;11.60;99.90
36586;DHT22;22591;48.314;11.562;2023-03-24T16:53:55;11.60;99.90
36586;DHT22;22591;48.314;11.562;2023-03-24T16:56:21;11.50;99.90
36586;DHT22;22591;48.314;11.562;2023-03-24T16:58:48;11.50;99.90
36586;DHT22;22591;48.314;11.562;2023-03-24T17:03:58;11.50;99.90
36586;DHT22;22591;48.314;11.562;2023-03-24T17:06:25;11.60;99.90
36586;DHT22;22591;48.314;11.562;2023-03-24T17:08:51;11.60;99.90
36586;DHT22;22591;48.314;11.562;2023-03-24T17:11:24;11.60;99.90
36586;DHT22;22591;48.314;11.562;2023-03-24T17:13:50;11.60;99.90
36586;DHT22;22591;48.314;11.562;2023-03-24T17:16:16;11.60;99.90
36586;DHT22;22591;48.314;11.562;2023-03-24T17:18:41;11.60;99.90
36586;DHT22;22591;48.314;11.562;2023-03-24T17:21:15;11.60;99.90
36586;DHT22;22591;48.314;11.562;2023-03-24T17:23:44;11.60;99.90
36586;DHT22;22591;48.314;11.562;2023-03-24T17:26:11;11.60;99.90
36586;DHT22;22591;48.314;11.562;2023-03-24T17:28:37;11.50;99.90
36586;DHT22;22591;48.314;11.562;2023-03-24T17:31:03;11.50;99.90
36586;DHT22;22591;48.314;11.562;2023-03-24T17:33:29;11.50;99.90
36586;DHT22;22591;48.314;11.562;2023-03-24T17:35:54;11.50;99.90
36586;DHT22;22591;48.314;11.562;2023-03-24T17:38:20;11.50;99.90
36586;DHT22;22591;48.314;11.562;2023-03-24T17:40:46;11.50;99.90
36586;DHT22;22591;48.314;11.562;2023-03-24T17:43:12;11.50;99.90
36586;DHT22;22591;48.314;11.562;2023-03-24T17:45:39;11.40;99.90
36586;DHT22;22591;48.314;11.562;2023-03-24T17:48:05;11.40;99.90
36586;DHT22;22591;48.314;11.562;2023-03-24T17:50:31;11.40;99.90
36586;DHT22;22591;48.314;11.562;2023-03-24T17:52:57;11.50;99.90
36586;DHT22;22591;48.314;11.562;2023-03-24T17:55:25;11.50;99.90
36586;DHT22;22591;48.314;11.562;2023-03-24T17:57:51;11.50;99.90
36586;DHT22;22591;48.314;11.562;2023-03-24T18:00:17;11.50;99.90